Time;durP1;ratioP1;P1;durP2;ratioP2;P2;SDS_P1;SDS_P2;PMS_P1;PMS_P2;Temp;Humidity;BMP_temperature;BMP_pressure;BME280_temperature;BME280_humidity;BME280_pressure;Samples;Min_cycle;Max_cycle;Signal;HPM_P1;HPM_P2
2022/01/25 00:27:38;;;;;;;37.67;19.60;;;;;;;;;;5090258;28;20500;-65
2022/01/25 00:30:21;;;;;;;33.08;19.33;;;;;;;;;;5090144;28;20123;-65
2022/01/25 00:32:44;;;;;;;38.15;19.17;;;;;;;;;;5074360;28;20255;-65
2022/01/25 00:35:10;;;;;;;36.03;20.23;;;;;;;;;;5090292;28;20020;-65
2022/01/25 00:37:35;;;;;;;31.85;19.50;;;;;;;;;;5089602;28;20048;-65
2022/01/25 00:40:00;;;;;;;40.85;20.67;;;;;;;;;;5090161;28;20016;-65
2022/01/25 00:42:25;;;;;;;32.47;17.98;;;;;;;;;;5071679;28;20519;-65
2022/01/25 00:44:51;;;;;;;30.95;17.95;;;;;;;;;;5090266;28;20020;-65
2022/01/25 00:47:16;;;;;;;29.45;16.15;;;;;;;;;;5089373;28;20024;-65
2022/01/25 00:49:43;;;;;;;33.75;18.83;;;;;;;;;;5089999;28;20492;-65
2022/01/25 00:53:52;;;;;;;31.58;18.88;;;;;;;;;;5071720;28;20023;-65
2022/01/25 00:55:06;;;;;;;34.28;18.60;;;;;;;;;;5079931;28;20050;-65
2022/01/25 00:57:31;;;;;;;36.63;18.13;;;;;;;;;;5088424;28;20020;-65
2022/01/25 00:59:56;;;;;;;34.85;17.50;;;;;;;;;;5089846;28;20032;-65
2022/01/25 01:02:22;;;;;;;32.00;17.83;;;;;;;;;;5089250;28;20375;-65
2022/01/25 01:04:47;;;;;;;29.67;16.35;;;;;;;;;;5089954;28;20024;-65
2022/01/25 01:07:15;;;;;;;36.85;20.30;;;;;;;;;;5088565;28;20102;-65
2022/01/25 01:09:43;;;;;;;30.65;17.92;;;;;;;;;;5089696;28;20023;-65
2022/01/25 01:12:18;;;;;;;30.90;16.77;;;;;;;;;;5089847;28;20066;-65
2022/01/25 01:31:07;;;;;;;38.55;18.75;;;;;;;;;;5092920;28;20050;-65
2022/01/25 01:44:02;;;;;;;42.45;18.65;;;;;;;;;;5093080;28;20027;-65
2022/01/25 01:48:59;;;;;;;37.25;19.52;;;;;;;;;;5090404;28;20039;-65
2022/01/25 01:51:33;;;;;;;36.22;19.13;;;;;;;;;;5089960;28;20091;-65
2022/01/25 01:54:01;;;;;;;45.72;19.58;;;;;;;;;;5093273;28;20019;-65
2022/01/25 01:56:26;;;;;;;36.53;19.02;;;;;;;;;;5092766;28;20058;-66
2022/01/25 01:58:52;;;;;;;31.98;17.05;;;;;;;;;;5092788;28;20016;-65
2022/01/25 02:01:18;;;;;;;41.13;19.95;;;;;;;;;;5092327;28;20016;-65
2022/01/25 02:03:43;;;;;;;38.65;18.13;;;;;;;;;;5093053;28;20507;-65
2022/01/25 02:06:09;;;;;;;31.40;18.05;;;;;;;;;;5091626;28;20017;-65
2022/01/25 02:08:34;;;;;;;35.45;18.27;;;;;;;;;;5092317;28;20024;-65
2022/01/25 02:10:59;;;;;;;29.42;17.77;;;;;;;;;;5092877;28;20027;-65
2022/01/25 02:13:25;;;;;;;34.67;18.15;;;;;;;;;;5093099;28;20030;-66
2022/01/25 02:15:51;;;;;;;31.73;18.02;;;;;;;;;;5092516;28;20027;-65
2022/01/25 02:23:45;;;;;;;36.35;17.70;;;;;;;;;;5091941;28;20047;-65
2022/01/25 02:26:10;;;;;;;29.88;17.05;;;;;;;;;;5091681;28;20483;-65
2022/01/25 02:28:37;;;;;;;37.63;17.00;;;;;;;;;;5091821;28;20015;-65
2022/01/25 02:31:03;;;;;;;34.88;18.08;;;;;;;;;;5092573;28;20537;-65
2022/01/25 02:33:29;;;;;;;33.97;17.27;;;;;;;;;;5092621;28;20028;-65
2022/01/25 02:35:54;;;;;;;26.85;16.00;;;;;;;;;;5091728;28;20035;-65
2022/01/25 02:38:21;;;;;;;32.08;17.75;;;;;;;;;;5091983;28;20535;-65
2022/01/25 02:40:47;;;;;;;31.90;16.63;;;;;;;;;;5091875;28;20016;-66
2022/01/25 02:43:15;;;;;;;33.85;16.83;;;;;;;;;;5091431;28;20081;-65
2022/01/25 02:45:41;;;;;;;35.85;17.65;;;;;;;;;;5091959;28;20024;-65
2022/01/25 02:50:49;;;;;;;30.77;16.77;;;;;;;;;;5123562;22;20514;-65
2022/01/25 02:53:15;;;;;;;30.25;16.58;;;;;;;;;;5111968;28;20031;-65
2022/01/25 02:55:40;;;;;;;25.38;15.90;;;;;;;;;;5111266;28;20032;-64
2022/01/25 02:58:07;;;;;;;33.13;17.67;;;;;;;;;;5111706;28;20027;-65
2022/01/25 03:00:32;;;;;;;34.88;17.30;;;;;;;;;;5105252;28;20540;-64
2022/01/25 03:02:57;;;;;;;31.15;16.05;;;;;;;;;;5091938;28;20181;-64
2022/01/25 03:05:22;;;;;;;31.08;16.65;;;;;;;;;;5091830;28;20049;-64
2022/01/25 03:07:48;;;;;;;39.17;18.73;;;;;;;;;;5091484;28;20323;-64
2022/01/25 03:10:13;;;;;;;30.23;17.02;;;;;;;;;;5091538;28;20028;-64
2022/01/25 03:12:47;;;;;;;33.60;17.73;;;;;;;;;;5091120;28;20380;-64
2022/01/25 03:17:45;;;;;;;30.23;17.05;;;;;;;;;;5091073;28;20468;-64
2022/01/25 03:20:18;;;;;;;31.83;16.65;;;;;;;;;;5090953;28;20468;-64
2022/01/25 03:22:59;;;;;;;34.55;16.60;;;;;;;;;;5076510;28;20031;-65
2022/01/25 03:25:25;;;;;;;47.97;17.95;;;;;;;;;;5091255;28;20477;-64
2022/01/25 03:27:51;;;;;;;39.58;18.25;;;;;;;;;;5091287;28;20117;-64
2022/01/25 03:30:16;;;;;;;31.65;17.52;;;;;;;;;;5091300;28;20064;-65
2022/01/25 03:32:41;;;;;;;33.78;17.25;;;;;;;;;;5090839;28;20020;-63
2022/01/25 03:35:06;;;;;;;32.53;18.25;;;;;;;;;;5091333;28;20020;-65
2022/01/25 03:37:31;;;;;;;33.88;16.63;;;;;;;;;;5089969;28;20024;-64
2022/01/25 03:39:57;;;;;;;32.58;16.13;;;;;;;;;;5091100;28;20023;-64
2022/01/25 03:42:23;;;;;;;31.45;16.55;;;;;;;;;;5091033;28;20532;-65
2022/01/25 03:44:49;;;;;;;35.75;17.35;;;;;;;;;;5091389;28;20095;-64
2022/01/25 03:47:18;;;;;;;33.33;16.08;;;;;;;;;;5091406;28;20036;-65
2022/01/25 03:49:52;;;;;;;41.13;19.05;;;;;;;;;;5090308;28;20027;-65
2022/01/25 03:52:23;;;;;;;36.90;19.30;;;;;;;;;;5090663;28;20036;-65
2022/01/25 03:54:48;;;;;;;30.38;17.83;;;;;;;;;;5090720;28;20027;-64
2022/01/25 03:57:14;;;;;;;36.30;18.50;;;;;;;;;;5090295;28;20070;-64
2022/01/25 03:59:39;;;;;;;36.63;18.08;;;;;;;;;;5090478;28;20054;-64
2022/01/25 04:02:04;;;;;;;32.00;17.73;;;;;;;;;;5088908;28;20016;-64
2022/01/25 04:04:30;;;;;;;33.65;17.02;;;;;;;;;;5090317;28;20024;-64
2022/01/25 04:06:56;;;;;;;32.00;16.83;;;;;;;;;;5090210;28;20592;-64
2022/01/25 04:09:21;;;;;;;38.78;18.33;;;;;;;;;;5090273;28;20047;-64
2022/01/25 04:11:47;;;;;;;38.38;19.48;;;;;;;;;;5089832;28;20043;-64
2022/01/25 04:14:12;;;;;;;41.35;19.23;;;;;;;;;;5090321;28;20024;-65
2022/01/25 04:19:20;;;;;;;42.40;17.30;;;;;;;;;;5089861;28;20342;-64
2022/01/25 04:27:14;;;;;;;41.50;20.02;;;;;;;;;;5090422;28;20082;-63
2022/01/25 04:29:39;;;;;;;39.67;17.90;;;;;;;;;;5089799;28;20028;-64
2022/01/25 04:32:06;;;;;;;42.33;19.55;;;;;;;;;;5089811;28;20281;-64
2022/01/25 04:53:33;;;;;;;39.70;20.05;;;;;;;;;;5082738;28;20135;-64
2022/01/25 04:56:47;;;;;;;39.90;20.15;;;;;;;;;;5089368;28;20020;-64
2022/01/25 04:58:59;;;;;;;42.10;19.25;;;;;;;;;;5081207;28;20100;-64
2022/01/25 05:01:24;;;;;;;39.13;18.38;;;;;;;;;;5090134;28;20568;-64
2022/01/25 05:04:17;;;;;;;37.42;19.73;;;;;;;;;;5089918;28;20020;-65
2022/01/25 05:06:35;;;;;;;38.28;18.92;;;;;;;;;;5087483;28;20040;-64
2022/01/25 05:09:08;;;;;;;41.92;18.70;;;;;;;;;;5071773;28;20118;-64
2022/01/25 05:11:36;;;;;;;35.10;18.58;;;;;;;;;;5071168;28;20031;-65
2022/01/25 05:16:36;;;;;;;42.63;20.27;;;;;;;;;;5076779;28;20151;-65
2022/01/25 05:24:27;;;;;;;39.63;19.98;;;;;;;;;;5088540;28;20031;-64
2022/01/25 05:26:53;;;;;;;43.53;19.30;;;;;;;;;;5089504;28;20023;-65
2022/01/25 05:29:18;;;;;;;38.25;20.98;;;;;;;;;;5088735;28;20020;-65
2022/01/25 05:31:44;;;;;;;41.65;21.00;;;;;;;;;;5089026;28;20077;-65
2022/01/25 05:34:10;;;;;;;42.60;22.15;;;;;;;;;;5089659;28;20026;-64
2022/01/25 05:36:36;;;;;;;43.10;21.98;;;;;;;;;;5087327;28;20107;-65
2022/01/25 05:39:08;;;;;;;41.63;20.48;;;;;;;;;;5085356;28;20020;-65
2022/01/25 05:41:33;;;;;;;35.40;18.27;;;;;;;;;;5087208;28;20496;-66
2022/01/25 05:46:34;;;;;;;40.85;19.77;;;;;;;;;;5087005;28;20024;-64
2022/01/25 05:49:00;;;;;;;47.75;22.65;;;;;;;;;;5087255;28;20073;-65
2022/01/25 05:51:25;;;;;;;47.03;22.98;;;;;;;;;;5086880;28;20349;-64
2022/01/25 05:53:50;;;;;;;47.22;23.27;;;;;;;;;;5087707;28;20042;-65
2022/01/25 05:56:16;;;;;;;49.38;23.20;;;;;;;;;;5078363;28;20046;-65
2022/01/25 05:58:41;;;;;;;46.17;23.65;;;;;;;;;;5087147;28;20069;-65
2022/01/25 06:01:06;;;;;;;49.25;21.35;;;;;;;;;;5091064;28;20020;-64
2022/01/25 06:03:32;;;;;;;50.60;21.50;;;;;;;;;;5091155;28;20024;-65
2022/01/25 06:05:57;;;;;;;41.20;21.60;;;;;;;;;;5074510;28;20035;-65
2022/01/25 06:08:22;;;;;;;44.00;21.92;;;;;;;;;;5090934;28;20032;-65
2022/01/25 06:10:47;;;;;;;49.63;24.33;;;;;;;;;;5090827;28;20020;-65
2022/01/25 06:13:12;;;;;;;46.30;23.27;;;;;;;;;;5090759;28;20031;-64
2022/01/25 06:15:38;;;;;;;47.23;23.70;;;;;;;;;;5088827;28;20354;-65
2022/01/25 06:18:03;;;;;;;42.87;22.17;;;;;;;;;;5087738;28;20266;-64
2022/01/25 06:20:28;;;;;;;47.45;20.60;;;;;;;;;;5090678;28;20307;-65
2022/01/25 06:22:54;;;;;;;46.00;23.10;;;;;;;;;;5090797;28;20054;-64
2022/01/25 06:25:19;;;;;;;47.25;21.85;;;;;;;;;;5090097;28;20031;-66
2022/01/25 06:27:44;;;;;;;45.13;22.08;;;;;;;;;;5089338;28;20119;-64
2022/01/25 06:30:11;;;;;;;44.33;21.02;;;;;;;;;;5083099;28;20124;-64
2022/01/25 06:32:37;;;;;;;45.78;23.23;;;;;;;;;;5087474;28;20028;-65
2022/01/25 06:35:06;;;;;;;46.58;23.67;;;;;;;;;;5090110;28;20020;-65
2022/01/25 06:37:31;;;;;;;48.33;23.00;;;;;;;;;;5084353;28;20450;-65
2022/01/25 06:39:58;;;;;;;47.15;22.50;;;;;;;;;;5083846;28;20495;-68
2022/01/25 06:42:23;;;;;;;43.00;22.60;;;;;;;;;;5089793;28;20027;-65
2022/01/25 06:44:53;;;;;;;49.78;24.38;;;;;;;;;;5089839;28;20357;-66
2022/01/25 06:47:18;;;;;;;52.38;25.63;;;;;;;;;;5089505;28;20050;-65
2022/01/25 06:49:43;;;;;;;46.65;22.50;;;;;;;;;;5089580;28;20063;-64
2022/01/25 06:52:09;;;;;;;52.83;23.87;;;;;;;;;;5090005;28;20122;-65
2022/01/25 06:54:34;;;;;;;50.33;23.67;;;;;;;;;;5088954;28;20282;-65
2022/01/25 06:57:00;;;;;;;51.05;24.30;;;;;;;;;;5087140;28;20016;-65
2022/01/25 06:59:25;;;;;;;58.88;25.90;;;;;;;;;;5089040;28;20229;-66
2022/01/25 07:01:50;;;;;;;49.53;24.73;;;;;;;;;;5089407;28;20043;-65
2022/01/25 07:04:15;;;;;;;51.42;24.60;;;;;;;;;;5089702;28;20050;-65
2022/01/25 07:06:40;;;;;;;49.42;22.67;;;;;;;;;;5091720;28;20032;-66
2022/01/25 07:09:06;;;;;;;49.03;23.73;;;;;;;;;;5090440;28;20031;-66
2022/01/25 07:11:31;;;;;;;48.33;24.63;;;;;;;;;;5090459;28;20357;-65
2022/01/25 07:13:56;;;;;;;51.53;25.27;;;;;;;;;;5091546;28;20024;-65
2022/01/25 07:16:21;;;;;;;57.25;25.40;;;;;;;;;;5090659;28;20028;-65
2022/01/25 07:18:46;;;;;;;59.30;27.10;;;;;;;;;;5091203;28;20472;-66
2022/01/25 07:21:12;;;;;;;53.90;25.27;;;;;;;;;;5089673;28;20062;-65
2022/01/25 07:23:37;;;;;;;56.72;26.95;;;;;;;;;;5091079;28;20293;-66
2022/01/25 07:26:02;;;;;;;51.25;23.02;;;;;;;;;;5091391;28;20031;-66
2022/01/25 07:28:29;;;;;;;50.58;23.15;;;;;;;;;;5072121;28;20051;-65
2022/01/25 07:30:54;;;;;;;51.85;23.25;;;;;;;;;;5091285;28;20066;-66
2022/01/25 07:33:19;;;;;;;50.35;24.10;;;;;;;;;;5090991;28;20028;-65
2022/01/25 07:35:45;;;;;;;51.95;22.33;;;;;;;;;;5090566;28;20028;-66
2022/01/25 07:38:11;;;;;;;47.55;22.10;;;;;;;;;;5089959;28;20034;-65
2022/01/25 07:40:37;;;;;;;51.38;23.40;;;;;;;;;;5090367;28;20019;-65
2022/01/25 07:43:04;;;;;;;49.65;24.23;;;;;;;;;;5090937;28;20418;-66
2022/01/25 07:45:34;;;;;;;55.85;25.02;;;;;;;;;;5090185;28;20081;-66
2022/01/25 07:48:00;;;;;;;55.35;25.95;;;;;;;;;;5072559;28;20031;-65
2022/01/25 07:50:26;;;;;;;51.30;25.02;;;;;;;;;;5088487;28;20024;-65
2022/01/25 07:52:51;;;;;;;55.58;25.38;;;;;;;;;;5075186;28;20084;-66
2022/01/25 07:55:16;;;;;;;55.83;23.50;;;;;;;;;;5070355;28;20095;-66
2022/01/25 07:57:41;;;;;;;50.83;24.95;;;;;;;;;;5092323;28;20766;-65
2022/01/25 08:00:07;;;;;;;46.40;23.20;;;;;;;;;;5088802;28;20019;-65
2022/01/25 08:02:32;;;;;;;46.88;21.42;;;;;;;;;;5090326;28;20153;-66
2022/01/25 08:04:57;;;;;;;51.88;23.92;;;;;;;;;;5089978;28;20384;-65
2022/01/25 08:07:23;;;;;;;51.63;24.08;;;;;;;;;;5090153;28;20039;-66
2022/01/25 08:09:48;;;;;;;44.50;21.17;;;;;;;;;;5090122;28;20509;-66
2022/01/25 08:12:13;;;;;;;44.45;20.23;;;;;;;;;;5088741;28;20047;-65
2022/01/25 08:14:39;;;;;;;46.42;23.45;;;;;;;;;;5090134;28;20069;-65
2022/01/25 08:17:05;;;;;;;48.28;23.65;;;;;;;;;;5090296;28;20016;-66
2022/01/25 08:19:31;;;;;;;56.92;25.13;;;;;;;;;;5089657;28;20016;-66
2022/01/25 08:21:56;;;;;;;57.63;24.90;;;;;;;;;;5089717;28;20028;-66
2022/01/25 08:24:21;;;;;;;47.88;22.50;;;;;;;;;;5089734;28;20031;-65
2022/01/25 08:26:47;;;;;;;48.05;23.45;;;;;;;;;;5089658;28;20057;-66
2022/01/25 08:29:12;;;;;;;52.40;23.63;;;;;;;;;;5089129;28;20535;-65
2022/01/25 08:31:41;;;;;;;54.90;22.75;;;;;;;;;;5090044;28;20028;-65
2022/01/25 08:34:07;;;;;;;45.08;22.52;;;;;;;;;;5089518;28;20024;-66
2022/01/25 08:36:32;;;;;;;47.00;22.33;;;;;;;;;;5090638;28;20375;-65
2022/01/25 08:38:57;;;;;;;50.47;22.60;;;;;;;;;;5089263;28;20441;-66
2022/01/25 08:41:22;;;;;;;47.65;22.38;;;;;;;;;;5089454;28;20054;-65
2022/01/25 08:43:48;;;;;;;48.03;24.45;;;;;;;;;;5089231;28;20468;-66
2022/01/25 08:46:13;;;;;;;51.20;23.17;;;;;;;;;;5089603;28;20039;-65
2022/01/25 08:48:39;;;;;;;53.85;21.70;;;;;;;;;;5089491;28;20020;-65
2022/01/25 08:51:04;;;;;;;51.88;23.65;;;;;;;;;;5106134;22;20040;-67
2022/01/25 08:53:30;;;;;;;58.10;22.73;;;;;;;;;;5061372;28;20381;-67
2022/01/25 08:55:55;;;;;;;53.60;22.70;;;;;;;;;;5068688;28;20422;-67
2022/01/25 08:58:20;;;;;;;46.40;21.77;;;;;;;;;;5069279;28;20107;-67
2022/01/25 09:00:45;;;;;;;54.90;21.83;;;;;;;;;;5069230;28;20514;-67
2022/01/25 09:03:11;;;;;;;54.22;23.08;;;;;;;;;;5066370;28;20021;-67
2022/01/25 09:05:37;;;;;;;53.35;24.17;;;;;;;;;;5068560;28;20063;-67
2022/01/25 09:08:02;;;;;;;52.97;23.65;;;;;;;;;;5051335;28;20231;-67
2022/01/25 09:10:28;;;;;;;52.60;22.90;;;;;;;;;;5069462;28;20490;-67
2022/01/25 09:12:53;;;;;;;47.28;22.33;;;;;;;;;;5069524;28;20027;-67
2022/01/25 09:15:18;;;;;;;55.17;24.40;;;;;;;;;;5069036;28;20048;-67
2022/01/25 09:17:43;;;;;;;55.85;22.85;;;;;;;;;;5069189;28;20491;-67
2022/01/25 09:20:09;;;;;;;49.80;23.35;;;;;;;;;;5069458;28;20024;-67
2022/01/25 09:22:34;;;;;;;53.85;24.52;;;;;;;;;;5068907;28;20046;-67
2022/01/25 09:24:59;;;;;;;52.88;23.77;;;;;;;;;;5069931;28;20021;-67
2022/01/25 09:27:24;;;;;;;52.75;25.50;;;;;;;;;;5068616;28;20029;-67
2022/01/25 09:29:50;;;;;;;60.35;26.20;;;;;;;;;;5069702;28;20020;-67
2022/01/25 09:32:15;;;;;;;45.83;23.30;;;;;;;;;;5068095;28;20048;-67
2022/01/25 09:34:40;;;;;;;45.90;22.83;;;;;;;;;;5070824;28;20051;-67
2022/01/25 09:37:05;;;;;;;51.05;24.58;;;;;;;;;;5072309;28;20460;-67
2022/01/25 09:39:31;;;;;;;58.78;22.95;;;;;;;;;;5072722;28;20028;-67
2022/01/25 09:41:57;;;;;;;49.47;22.60;;;;;;;;;;5073214;28;20016;-67
2022/01/25 09:44:23;;;;;;;57.70;25.40;;;;;;;;;;5073280;28;20033;-67
2022/01/25 09:46:53;;;;;;;50.60;24.13;;;;;;;;;;5072136;28;20059;-67
2022/01/25 09:49:18;;;;;;;50.05;24.00;;;;;;;;;;5065289;28;20020;-67
2022/01/25 09:51:44;;;;;;;55.22;24.95;;;;;;;;;;5072697;28;20496;-67
2022/01/25 09:54:09;;;;;;;47.55;22.17;;;;;;;;;;5072852;28;20064;-67
2022/01/25 09:56:34;;;;;;;46.45;22.30;;;;;;;;;;5072037;28;20051;-67
2022/01/25 09:59:00;;;;;;;55.13;24.48;;;;;;;;;;5071491;28;20521;-69
2022/01/25 10:01:26;;;;;;;50.88;22.60;;;;;;;;;;5072606;28;20460;-68
2022/01/25 10:03:51;;;;;;;49.08;22.83;;;;;;;;;;5072606;28;20484;-68
2022/01/25 10:06:20;;;;;;;46.90;22.30;;;;;;;;;;5072365;28;20106;-68
2022/01/25 10:08:45;;;;;;;47.25;23.05;;;;;;;;;;5071884;28;20039;-68
2022/01/25 10:11:11;;;;;;;45.72;20.33;;;;;;;;;;5071450;28;20040;-68
2022/01/25 10:13:37;;;;;;;52.15;20.73;;;;;;;;;;5072635;28;20026;-68
2022/01/25 10:16:02;;;;;;;42.70;20.40;;;;;;;;;;5070471;28;20480;-68
2022/01/25 10:18:36;;;;;;;48.72;21.05;;;;;;;;;;5071851;28;20021;-68
2022/01/25 10:21:02;;;;;;;46.10;19.10;;;;;;;;;;5071687;28;20027;-68
2022/01/25 10:23:31;;;;;;;47.78;19.42;;;;;;;;;;5072137;28;20020;-68
2022/01/25 10:25:59;;;;;;;44.42;18.92;;;;;;;;;;5071713;28;20016;-68
2022/01/25 10:28:27;;;;;;;48.28;20.70;;;;;;;;;;5071793;28;20085;-68
2022/01/25 10:30:58;;;;;;;43.92;17.80;;;;;;;;;;5072006;28;20056;-68
2022/01/25 10:33:36;;;;;;;33.45;13.65;;;;;;;;;;5071926;28;20067;-68
2022/01/25 10:36:22;;;;;;;47.33;16.98;;;;;;;;;;5066659;28;20031;-68
2022/01/25 10:38:49;;;;;;;44.47;18.13;;;;;;;;;;5071394;28;20025;-68
2022/01/25 10:41:18;;;;;;;41.58;16.77;;;;;;;;;;5072582;28;20024;-68
2022/01/25 10:43:44;;;;;;;40.75;17.73;;;;;;;;;;5071733;28;20028;-68
2022/01/25 10:46:16;;;;;;;38.55;16.60;;;;;;;;;;5070969;28;20537;-68
2022/01/25 10:48:43;;;;;;;40.67;18.58;;;;;;;;;;5071069;28;20062;-68
2022/01/25 10:51:10;;;;;;;40.92;18.58;;;;;;;;;;5071158;28;20488;-68
2022/01/25 10:53:35;;;;;;;41.22;18.83;;;;;;;;;;5071426;28;20476;-68
2022/01/25 10:56:01;;;;;;;45.50;19.45;;;;;;;;;;5071450;28;20103;-69
2022/01/25 10:58:26;;;;;;;50.85;19.60;;;;;;;;;;5071516;28;20023;-68
2022/01/25 11:00:51;;;;;;;47.58;19.65;;;;;;;;;;5070759;28;20017;-68
2022/01/25 11:03:31;;;;;;;42.22;18.73;;;;;;;;;;5071164;28;20020;-68
2022/01/25 11:05:57;;;;;;;44.65;18.10;;;;;;;;;;5071580;28;20020;-68
2022/01/25 11:08:23;;;;;;;41.88;17.00;;;;;;;;;;5070625;28;20044;-68
2022/01/25 11:10:59;;;;;;;41.83;17.95;;;;;;;;;;5072037;28;20027;-68
2022/01/25 11:15:53;;;;;;;45.42;18.75;;;;;;;;;;5070982;28;20027;-69
2022/01/25 11:18:19;;;;;;;53.03;20.00;;;;;;;;;;5070935;28;20369;-68
2022/01/25 11:20:45;;;;;;;67.15;22.40;;;;;;;;;;5071286;28;20017;-68
2022/01/25 11:23:11;;;;;;;51.67;19.25;;;;;;;;;;5071218;28;20356;-68
2022/01/25 11:25:37;;;;;;;49.10;21.00;;;;;;;;;;5071142;28;20070;-68
2022/01/25 11:28:02;;;;;;;41.03;18.23;;;;;;;;;;5070166;28;20027;-68
2022/01/25 11:30:28;;;;;;;51.17;20.73;;;;;;;;;;5070558;28;20095;-68
2022/01/25 11:32:53;;;;;;;43.60;19.27;;;;;;;;;;5071085;28;20058;-68
2022/01/25 11:35:20;;;;;;;46.80;19.77;;;;;;;;;;5070833;28;20029;-68
2022/01/25 11:37:47;;;;;;;56.42;19.45;;;;;;;;;;5070839;28;20516;-68
2022/01/25 11:40:26;;;;;;;58.60;18.25;;;;;;;;;;5070863;28;20499;-68
2022/01/25 11:42:52;;;;;;;49.03;19.58;;;;;;;;;;5070664;28;20017;-68
2022/01/25 11:45:22;;;;;;;42.30;17.83;;;;;;;;;;5069630;28;20040;-67
2022/01/25 11:47:48;;;;;;;42.15;17.25;;;;;;;;;;5066171;28;20020;-67
2022/01/25 11:50:13;;;;;;;39.80;16.10;;;;;;;;;;5069235;28;20492;-68
2022/01/25 11:52:49;;;;;;;44.70;17.70;;;;;;;;;;5070861;28;20047;-68
2022/01/25 11:55:17;;;;;;;48.47;21.05;;;;;;;;;;5069820;28;20267;-68
2022/01/25 11:58:05;;;;;;;46.50;19.40;;;;;;;;;;5069571;28;20244;-67
2022/01/25 12:00:39;;;;;;;46.20;19.60;;;;;;;;;;5037451;28;20033;-69
2022/01/25 12:03:19;;;;;;;39.70;18.15;;;;;;;;;;5059658;28;20032;-67
2022/01/25 12:05:59;;;;;;;41.25;18.30;;;;;;;;;;5069976;28;20056;-68
2022/01/25 12:08:37;;;;;;;45.20;19.67;;;;;;;;;;5069739;28;20027;-68
2022/01/25 12:11:23;;;;;;;47.00;19.25;;;;;;;;;;5069897;28;20520;-68
2022/01/25 12:13:48;;;;;;;47.95;21.73;;;;;;;;;;5070203;28;20114;-67
2022/01/25 12:16:23;;;;;;;40.47;16.90;;;;;;;;;;5069395;28;20070;-68
2022/01/25 12:18:58;;;;;;;52.28;22.52;;;;;;;;;;5069914;28;20490;-68
2022/01/25 12:21:42;;;;;;;53.47;21.50;;;;;;;;;;5063819;28;20077;-67
2022/01/25 12:24:33;;;;;;;43.60;19.10;;;;;;;;;;5069659;28;20021;-67
2022/01/25 12:27:25;;;;;;;50.97;20.40;;;;;;;;;;5069909;28;20028;-67
2022/01/25 12:29:47;;;;;;;48.60;17.65;;;;;;;;;;5069363;28;20036;-67
2022/01/25 12:32:30;;;;;;;48.10;19.85;;;;;;;;;;5069752;28;20111;-67
2022/01/25 12:34:56;;;;;;;48.75;17.88;;;;;;;;;;5069847;28;20021;-68
2022/01/25 12:37:39;;;;;;;55.53;18.40;;;;;;;;;;5069657;28;20102;-67
2022/01/25 12:40:24;;;;;;;49.13;20.90;;;;;;;;;;5069273;28;20029;-68
2022/01/25 12:42:50;;;;;;;45.72;18.25;;;;;;;;;;5069439;28;20028;-67
2022/01/25 12:45:18;;;;;;;43.78;19.42;;;;;;;;;;5068955;28;20024;-67
2022/01/25 12:47:50;;;;;;;49.40;19.08;;;;;;;;;;5069918;28;20022;-68
2022/01/25 12:50:15;;;;;;;54.75;20.48;;;;;;;;;;5068948;28;20525;-68
2022/01/25 12:52:41;;;;;;;46.20;20.20;;;;;;;;;;5069804;28;20099;-67
2022/01/25 12:55:06;;;;;;;48.05;18.73;;;;;;;;;;5070041;28;20035;-67
2022/01/25 12:57:32;;;;;;;49.75;19.92;;;;;;;;;;5068253;28;20029;-68
2022/01/25 12:59:58;;;;;;;50.90;19.73;;;;;;;;;;5069624;28;20023;-67
2022/01/25 13:02:24;;;;;;;45.90;20.35;;;;;;;;;;5069301;28;20443;-68
2022/01/25 13:04:50;;;;;;;50.15;18.45;;;;;;;;;;5069907;28;20409;-67
2022/01/25 13:07:15;;;;;;;46.72;18.55;;;;;;;;;;5068798;28;20075;-68
2022/01/25 13:09:44;;;;;;;49.50;18.65;;;;;;;;;;5072352;28;20020;-68
2022/01/25 13:12:16;;;;;;;36.33;16.27;;;;;;;;;;5073461;28;20073;-68
2022/01/25 13:17:14;;;;;;;38.15;16.85;;;;;;;;;;5073549;28;20032;-67
2022/01/25 13:19:44;;;;;;;40.65;16.30;;;;;;;;;;5073154;28;20016;-68
2022/01/25 13:22:13;;;;;;;42.13;16.27;;;;;;;;;;5072764;28;20476;-68
2022/01/25 13:24:48;;;;;;;37.83;16.98;;;;;;;;;;5072976;28;20028;-67
2022/01/25 13:27:14;;;;;;;47.30;17.38;;;;;;;;;;5072349;28;20522;-68
2022/01/25 13:32:38;;;;;;;42.08;18.35;;;;;;;;;;5073635;28;20031;-68
2022/01/25 13:35:04;;;;;;;45.63;17.45;;;;;;;;;;5061571;28;20028;-67
2022/01/25 13:37:29;;;;;;;42.75;17.13;;;;;;;;;;5059125;28;20796;-67
2022/01/25 13:39:57;;;;;;;46.42;18.88;;;;;;;;;;5072168;28;20013;-68
2022/01/25 13:42:27;;;;;;;46.65;19.25;;;;;;;;;;5072990;28;20081;-67
2022/01/25 13:47:57;;;;;;;50.35;21.60;;;;;;;;;;5072295;28;20273;-67
2022/01/25 13:50:22;;;;;;;45.80;19.43;;;;;;;;;;5070410;28;20067;-67
2022/01/25 13:52:50;;;;;;;55.83;19.52;;;;;;;;;;5062621;28;20302;-67
2022/01/25 13:55:15;;;;;;;53.88;23.02;;;;;;;;;;5066474;28;20032;-67
2022/01/25 13:57:40;;;;;;;49.28;20.80;;;;;;;;;;5072028;28;20082;-67
2022/01/25 14:00:06;;;;;;;55.17;21.02;;;;;;;;;;5054330;28;20354;-67
2022/01/25 14:02:31;;;;;;;61.10;22.25;;;;;;;;;;5054276;28;20388;-68
2022/01/25 14:05:00;;;;;;;52.10;20.23;;;;;;;;;;5072358;28;20126;-67
2022/01/25 14:07:25;;;;;;;51.40;19.13;;;;;;;;;;5071630;28;20079;-67
2022/01/25 14:09:50;;;;;;;56.57;22.60;;;;;;;;;;5071735;28;20048;-67
2022/01/25 14:25:27;;;;;;;56.97;23.77;;;;;;;;;;5071864;28;20018;-67
2022/01/25 14:27:55;;;;;;;50.97;21.05;;;;;;;;;;5071652;28;20119;-67
2022/01/25 14:30:20;;;;;;;57.70;22.10;;;;;;;;;;5072048;28;20034;-67
2022/01/25 14:32:55;;;;;;;55.30;22.60;;;;;;;;;;5072562;28;20020;-68
2022/01/25 14:35:20;;;;;;;56.45;20.58;;;;;;;;;;5072634;28;20021;-67
2022/01/25 14:37:46;;;;;;;61.47;21.13;;;;;;;;;;5071838;28;20070;-68
2022/01/25 14:40:13;;;;;;;57.22;22.25;;;;;;;;;;5071394;28;20052;-68
2022/01/25 14:42:38;;;;;;;60.10;22.05;;;;;;;;;;5071446;28;20024;-68
2022/01/25 14:45:05;;;;;;;50.30;20.40;;;;;;;;;;5071070;28;20023;-68
2022/01/25 14:47:40;;;;;;;54.80;21.20;;;;;;;;;;5070947;28;20107;-68
2022/01/25 14:50:07;;;;;;;57.33;21.13;;;;;;;;;;5053175;28;20506;-68
2022/01/25 14:52:33;;;;;;;60.45;22.83;;;;;;;;;;5071825;28;20086;-68
2022/01/25 14:54:58;;;;;;;63.38;23.63;;;;;;;;;;5071434;28;20028;-68
2022/01/25 14:57:31;;;;;;;61.22;23.30;;;;;;;;;;5071061;28;20028;-68
2022/01/25 14:59:56;;;;;;;56.40;22.00;;;;;;;;;;5070803;28;20472;-68
2022/01/25 15:02:23;;;;;;;56.83;23.92;;;;;;;;;;5071314;28;20048;-68
2022/01/25 15:04:50;;;;;;;62.13;23.83;;;;;;;;;;5053191;28;20028;-67
2022/01/25 15:07:24;;;;;;;56.08;23.67;;;;;;;;;;5071112;28;20585;-67
2022/01/25 15:09:54;;;;;;;63.55;22.00;;;;;;;;;;5071277;28;20024;-67
2022/01/25 15:12:20;;;;;;;67.40;23.73;;;;;;;;;;5071016;28;20031;-67
2022/01/25 15:15:25;;;;;;;71.95;27.92;;;;;;;;;;5071139;28;20111;-67
2022/01/25 15:17:37;;;;;;;67.53;24.67;;;;;;;;;;5066415;28;20063;-67
2022/01/25 15:20:03;;;;;;;60.35;24.27;;;;;;;;;;5071495;28;20095;-67
2022/01/25 15:22:29;;;;;;;60.63;24.15;;;;;;;;;;5070108;28;20025;-67
2022/01/25 15:24:55;;;;;;;68.95;22.42;;;;;;;;;;5070482;28;20496;-67
2022/01/25 15:27:27;;;;;;;62.15;22.73;;;;;;;;;;5070633;28;20021;-67
2022/01/25 15:29:52;;;;;;;74.22;24.80;;;;;;;;;;5070727;28;20013;-67
2022/01/25 15:32:17;;;;;;;65.65;24.92;;;;;;;;;;5070606;28;20110;-67
2022/01/25 15:34:43;;;;;;;62.42;24.02;;;;;;;;;;5071172;28;20433;-67
2022/01/25 15:37:10;;;;;;;62.60;25.67;;;;;;;;;;5070315;28;20013;-67
2022/01/25 15:39:35;;;;;;;71.07;26.30;;;;;;;;;;5070596;28;20024;-67
2022/01/25 15:42:01;;;;;;;60.28;24.75;;;;;;;;;;5071094;28;20027;-67
2022/01/25 15:44:35;;;;;;;72.25;26.92;;;;;;;;;;5053707;28;20021;-67
2022/01/25 15:47:00;;;;;;;74.70;25.55;;;;;;;;;;5070716;28;20096;-68
2022/01/25 15:49:27;;;;;;;75.85;28.55;;;;;;;;;;5069933;28;20115;-67
2022/01/25 15:51:52;;;;;;;64.95;26.20;;;;;;;;;;5069577;28;20024;-68
2022/01/25 15:54:17;;;;;;;65.32;25.67;;;;;;;;;;5069459;28;20316;-68
2022/01/25 15:56:43;;;;;;;68.65;24.90;;;;;;;;;;5069835;28;20035;-68
2022/01/25 15:59:08;;;;;;;64.55;25.40;;;;;;;;;;5070105;28;20056;-68
2022/01/25 16:01:33;;;;;;;66.60;25.52;;;;;;;;;;5070002;28;20474;-68
2022/01/25 16:03:58;;;;;;;69.07;27.23;;;;;;;;;;5070401;28;20048;-67
2022/01/25 16:06:24;;;;;;;73.70;27.27;;;;;;;;;;5069601;28;20032;-68
2022/01/25 16:08:50;;;;;;;69.78;26.38;;;;;;;;;;5070201;28;20386;-68
2022/01/25 16:11:18;;;;;;;60.13;25.60;;;;;;;;;;5070301;28;20036;-68
2022/01/25 16:13:44;;;;;;;72.65;29.42;;;;;;;;;;5070102;28;20025;-67
2022/01/25 16:16:10;;;;;;;70.03;27.60;;;;;;;;;;5069406;28;20472;-68
2022/01/25 16:18:35;;;;;;;61.20;21.13;;;;;;;;;;5069898;28;20020;-67
2022/01/25 16:21:00;;;;;;;74.57;27.30;;;;;;;;;;5070247;28;20115;-69
2022/01/25 16:23:25;;;;;;;79.50;24.98;;;;;;;;;;5069873;28;20475;-67
2022/01/25 16:25:51;;;;;;;63.22;25.42;;;;;;;;;;5070064;28;20044;-68